createdAt,value
2022-09-29T00:02:20.389Z,98574.16
2022-09-29T00:07:23.194Z,98571.63
2022-09-29T00:12:26.144Z,98579.03
2022-09-29T00:17:30.132Z,98573.94
2022-09-29T00:22:33.394Z,98576.97
2022-09-29T00:27:35.965Z,98587.03
2022-09-29T00:32:39.886Z,98583.81
2022-09-29T00:37:42.544Z,98583.94
2022-09-29T00:42:45.496Z,98591.50
2022-09-29T00:47:59.620Z,98589.94
2022-09-29T00:53:08.160Z,98603.72
2022-09-29T00:58:17.750Z,98599.31
2022-09-29T01:03:24.793Z,98593.41
2022-09-29T01:08:35.552Z,98589.28
2022-09-29T01:13:39.379Z,98597.53
2022-09-29T01:18:44.727Z,98593.25
2022-09-29T01:24:16.231Z,98601.66
2022-09-29T01:29:38.591Z,98604.66
2022-09-29T01:34:52.368Z,98603.13
2022-09-29T01:40:03.685Z,98608.66
2022-09-29T01:45:16.579Z,98617.03
2022-09-29T01:50:26.450Z,98610.97
2022-09-29T01:55:34.119Z,98609.38
2022-09-29T02:00:41.893Z,98607.69
2022-09-29T02:05:50.934Z,98609.84
2022-09-29T02:11:00.405Z,98612.69
2022-09-29T02:16:04.999Z,98613.84
2022-09-29T02:21:09.922Z,98613.13
2022-09-29T02:26:14.006Z,98615.13
2022-09-29T02:31:17.352Z,98615.28
2022-09-29T02:36:31.041Z,98618.09
2022-09-29T02:41:50.910Z,98627.34
2022-09-29T02:47:23.222Z,98629.34
2022-09-29T02:52:32.627Z,98630.31
2022-09-29T02:57:46.578Z,98629.63
2022-09-29T03:02:49.544Z,98629.91
2022-09-29T03:07:53.570Z,98634.44
2022-09-29T03:12:56.156Z,98625.69
2022-09-29T03:17:58.771Z,98630.38
2022-09-29T03:23:02.672Z,98630.50
2022-09-29T03:28:05.432Z,98635.19
2022-09-29T03:33:07.960Z,98647.13
2022-09-29T03:38:11.982Z,98646.41
2022-09-29T03:43:14.618Z,98645.53
2022-09-29T03:48:19.648Z,98652.94
2022-09-29T03:53:25.575Z,98658.44
2022-09-29T03:58:28.524Z,98659.44
2022-09-29T04:03:31.275Z,98655.06
2022-09-29T04:08:36.649Z,98661.59
2022-09-29T04:13:39.273Z,98666.97
2022-09-29T04:18:41.863Z,98676.00
2022-09-29T04:23:45.767Z,98674.31
2022-09-29T04:28:48.619Z,98675.31
2022-09-29T04:33:52.053Z,98675.47
2022-09-29T04:38:56.097Z,98688.09
2022-09-29T04:43:58.652Z,98686.38
2022-09-29T04:49:01.218Z,98684.66
2022-09-29T04:54:05.495Z,98681.28
2022-09-29T04:59:08.501Z,98677.75
2022-09-29T05:04:13.427Z,98683.25
2022-09-29T05:09:17.445Z,98680.56
2022-09-29T05:14:20.089Z,98686.06
2022-09-29T05:19:22.711Z,98693.28
2022-09-29T05:24:26.670Z,98698.81
2022-09-29T05:29:29.273Z,98704.34
2022-09-29T05:34:31.878Z,98704.34
2022-09-29T05:39:37.178Z,98700.94
2022-09-29T05:44:39.877Z,98699.25
2022-09-29T05:49:42.447Z,98712.53
2022-09-29T05:54:50.979Z,98704.63
2022-09-29T05:59:53.643Z,98715.38
2022-09-29T06:04:56.462Z,98717.22
2022-09-29T06:10:00.575Z,98713.69
2022-09-29T06:15:03.797Z,98719.06
2022-09-29T06:20:08.198Z,98714.53
2022-09-29T06:25:12.390Z,98720.91
2022-09-29T06:30:15.478Z,98713.84
2022-09-29T06:35:36.323Z,98710.16
2022-09-29T06:40:40.336Z,98709.16
2022-09-29T06:45:42.993Z,98717.22
2022-09-29T06:50:45.678Z,98726.28
2022-09-29T06:55:54.395Z,98726.44
2022-09-29T07:01:00.987Z,98732.78
2022-09-29T07:06:20.576Z,98731.94
2022-09-29T07:11:24.797Z,98729.25
2022-09-29T07:16:27.757Z,98725.72
2022-09-29T07:21:30.412Z,98724.72
2022-09-29T07:26:34.421Z,98728.41
2022-09-29T07:31:49.008Z,98731.81
2022-09-29T07:36:53.908Z,98733.88
2022-09-29T07:41:58.652Z,98737.34
2022-09-29T07:47:01.426Z,98737.06
2022-09-29T07:52:04.148Z,98739.16
2022-09-29T07:57:08.385Z,98741.66
2022-09-29T08:02:12.100Z,98747.19
2022-09-29T08:07:14.856Z,98752.00
2022-09-29T08:12:19.088Z,98753.03
2022-09-29T08:17:21.665Z,98756.00
2022-09-29T08:22:24.323Z,98758.28
2022-09-29T08:27:29.225Z,98755.59
2022-09-29T08:32:32.007Z,98774.13
2022-09-29T08:37:35.291Z,98773.97
2022-09-29T08:42:55.704Z,98781.78
2022-09-29T08:48:15.560Z,98776.25
2022-09-29T08:53:28.832Z,98787.84
2022-09-29T08:58:35.277Z,98793.97
2022-09-29T09:04:04.186Z,98808.94
2022-09-29T09:09:22.545Z,98806.13
2022-09-29T09:14:40.221Z,98812.22
2022-09-29T09:20:19.292Z,98802.31
2022-09-29T09:25:34.926Z,98810.94
2022-09-29T09:30:44.831Z,98814.50
2022-09-29T09:36:03.082Z,98815.22
2022-09-29T09:41:06.029Z,98816.75
2022-09-29T09:46:17.973Z,98809.53
2022-09-29T09:51:34.236Z,98823.72
2022-09-29T09:57:01.996Z,98821.72
2022-09-29T10:02:06.106Z,98820.31
2022-09-29T10:07:08.873Z,98822.00
2022-09-29T10:12:16.137Z,98822.44
2022-09-29T10:17:24.607Z,98821.44
2022-09-29T10:22:28.504Z,98819.47
2022-09-29T10:27:31.732Z,98825.59
2022-09-29T10:32:38.796Z,98827.28
2022-09-29T10:37:47.412Z,98828.88
2022-09-29T10:42:51.539Z,98834.25
2022-09-29T10:48:13.790Z,98837.94
2022-09-29T10:53:24.127Z,98833.41
2022-09-29T10:58:44.359Z,98838.63
2022-09-29T11:03:53.736Z,98834.94
2022-09-29T11:08:58.677Z,98835.66
2022-09-29T11:14:01.862Z,98838.06
2022-09-29T11:19:09.758Z,98834.09
2022-09-29T11:24:22.177Z,98839.91
2022-09-29T11:29:36.796Z,98835.50
2022-09-29T11:35:05.893Z,98842.06
2022-09-29T11:40:13.531Z,98840.31
2022-09-29T11:50:44.349Z,98845.13
2022-09-29T11:56:01.891Z,98850.25
2022-09-29T12:01:22.457Z,98842.28
2022-09-29T12:06:58.128Z,98849.66
2022-09-29T12:12:23.268Z,98846.97
2022-09-29T12:17:31.249Z,98843.59
2022-09-29T12:22:37.301Z,98850.66
2022-09-29T12:27:44.793Z,98844.69
2022-09-29T12:32:53.595Z,98839.00
2022-09-29T12:38:03.442Z,98836.03
2022-09-29T12:43:14.467Z,98842.13
2022-09-29T12:48:30.159Z,98837.47
2022-09-29T12:53:38.424Z,98835.06
2022-09-29T12:58:46.960Z,98838.84
2022-09-29T13:04:22.662Z,98840.84
2022-09-29T13:09:45.237Z,98847.34
2022-09-29T13:15:04.038Z,98843.09
2022-09-29T13:20:34.182Z,98838.28
2022-09-29T13:25:48.868Z,98843.66
2022-09-29T13:30:53.645Z,98854.44
2022-09-29T13:35:56.711Z,98858.97
2022-09-29T13:41:37.988Z,98852.59
2022-09-29T13:46:41.720Z,98863.69
2022-09-29T13:51:49.950Z,98855.44
2022-09-29T13:57:02.424Z,98858.41
2022-09-29T14:02:20.133Z,98859.00
2022-09-29T14:07:45.439Z,98855.59
2022-09-29T14:12:58.633Z,98855.69
2022-09-29T14:18:06.987Z,98851.53
2022-09-29T14:23:10.989Z,98848.41
2022-09-29T14:28:20.063Z,98857.03
2022-09-29T14:33:25.994Z,98861.72
2022-09-29T14:38:32.113Z,98868.88
2022-09-29T14:43:41.903Z,98864.75
2022-09-29T14:49:16.644Z,98867.75
2022-09-29T14:54:26.916Z,98875.44
2022-09-29T14:59:48.191Z,98886.81
2022-09-29T15:04:51.334Z,98893.34
2022-09-29T15:09:55.954Z,98903.44
2022-09-29T15:15:02.209Z,98908.69
2022-09-29T15:20:15.928Z,98911.19
2022-09-29T15:25:29.404Z,98917.84
2022-09-29T15:30:35.016Z,98920.41
2022-09-29T15:35:44.498Z,98926.78
2022-09-29T15:40:54.377Z,98931.19
2022-09-29T15:46:00.532Z,98941.25
2022-09-29T15:51:04.319Z,98948.34
2022-09-29T15:56:07.274Z,98960.28
2022-09-29T16:01:13.780Z,98965.78
2022-09-29T16:06:24.789Z,98964.41
2022-09-29T16:11:31.108Z,98973.72
2022-09-29T16:16:38.071Z,98983.22
2022-09-29T16:21:41.999Z,98995.13
2022-09-29T16:26:47.586Z,99000.09
2022-09-29T16:31:52.971Z,99003.75
2022-09-29T16:36:57.514Z,99003.91
2022-09-29T16:42:06.510Z,99011.44
2022-09-29T16:47:17.081Z,99016.38
2022-09-29T16:52:25.963Z,99013.97
2022-09-29T16:57:30.274Z,99015.94
2022-09-29T17:02:34.363Z,99025.88
2022-09-29T17:07:41.624Z,99031.25
2022-09-29T17:12:44.334Z,99038.63
2022-09-29T17:17:50.593Z,99042.63
2022-09-29T17:22:54.233Z,99040.50
2022-09-29T17:28:15.691Z,99042.63
2022-09-29T17:33:20.637Z,99055.41
2022-09-29T17:38:23.930Z,99065.66
2022-09-29T17:43:27.547Z,99064.22
2022-09-29T17:48:32.849Z,99072.59
2022-09-29T17:53:35.459Z,99065.94
2022-09-29T17:58:38.138Z,99066.38
2022-09-29T18:03:42.200Z,99073.19
2022-09-29T18:08:44.765Z,99062.94
2022-09-29T18:13:47.575Z,99066.22
2022-09-29T18:18:55.439Z,99066.66
2022-09-29T18:24:00.686Z,99072.75
2022-09-29T18:29:15.187Z,99079.72
2022-09-29T18:34:22.059Z,99073.91
2022-09-29T18:39:24.788Z,99079.13
2022-09-29T18:44:29.297Z,99080.69
2022-09-29T18:49:33.271Z,99086.66
2022-09-29T18:54:36.400Z,99090.06
2022-09-29T18:59:39.451Z,99083.38
2022-09-29T19:04:43.506Z,99085.81
2022-09-29T19:09:46.518Z,99094.28
2022-09-29T19:14:49.201Z,99108.50
2022-09-29T19:19:53.383Z,99120.75
2022-09-29T19:24:55.932Z,99118.75
2022-09-29T19:30:03.215Z,99118.44
2022-09-29T19:35:09.985Z,99127.28
2022-09-29T19:40:17.580Z,99133.22
2022-09-29T19:45:21.518Z,99143.56
2022-09-29T19:50:43.816Z,99148.84
2022-09-29T19:55:46.717Z,99163.03
2022-09-29T20:00:49.367Z,99164.31
2022-09-29T20:05:59.941Z,99165.31
2022-09-29T20:11:07.627Z,99178.38
2022-09-29T20:16:10.682Z,99176.53
2022-09-29T20:21:14.750Z,99183.31
2022-09-29T20:26:17.322Z,99186.88
2022-09-29T20:31:20.610Z,99185.75
2022-09-29T20:36:24.672Z,99191.84
2022-09-29T20:41:29.339Z,99195.97
2022-09-29T20:46:32.416Z,99197.50
2022-09-29T20:51:38.138Z,99197.38
2022-09-29T20:56:42.324Z,99207.88
2022-09-29T21:01:45.697Z,99206.34
2022-09-29T21:06:51.898Z,99205.91
2022-09-29T21:11:55.438Z,99205.19
2022-09-29T21:16:58.198Z,99212.00
2022-09-29T21:22:02.094Z,99221.53
2022-09-29T21:27:04.950Z,99224.94
2022-09-29T21:32:07.811Z,99221.22
2022-09-29T21:37:11.700Z,99227.34
2022-09-29T21:42:14.354Z,99231.75
2022-09-29T21:47:16.931Z,99235.16
2022-09-29T21:52:20.991Z,99234.13
2022-09-29T21:57:24.522Z,99228.63
2022-09-29T22:02:27.259Z,99224.91
2022-09-29T22:07:31.313Z,99246.38
2022-09-29T22:12:34.000Z,99242.81
2022-09-29T22:17:36.554Z,99248.06
2022-09-29T22:22:40.560Z,99244.38
2022-09-29T22:27:44.400Z,99248.81
2022-09-29T22:32:47.046Z,99257.63
2022-09-29T22:37:51.382Z,99249.78
2022-09-29T22:42:54.874Z,99253.91
2022-09-29T22:47:58.302Z,99265.56
2022-09-29T22:53:02.399Z,99265.56
2022-09-29T22:58:04.976Z,99271.81
2022-09-29T23:03:08.826Z,99281.66
2022-09-29T23:08:12.762Z,99276.38
2022-09-29T23:13:15.429Z,99285.34
2022-09-29T23:18:18.127Z,99281.50
2022-09-29T23:23:22.043Z,99288.47
2022-09-29T23:28:24.712Z,99283.91
2022-09-29T23:33:27.626Z,99284.75
2022-09-29T23:38:49.266Z,99276.66
2022-09-29T23:43:51.860Z,99278.50
2022-09-29T23:48:56.080Z,99290.88
2022-09-29T23:54:00.610Z,99292.00
2022-09-29T23:59:03.750Z,99295.28
